createdAt,value
2022-09-13T00:01:37.029Z,99.90
2022-09-13T00:04:07.404Z,99.90
2022-09-13T00:06:38.210Z,99.90
2022-09-13T00:09:08.533Z,99.90
2022-09-13T00:11:38.787Z,99.90
2022-09-13T00:14:08.981Z,99.90
2022-09-13T00:16:41.864Z,99.90
2022-09-13T00:19:12.276Z,99.90
2022-09-13T00:21:42.476Z,99.90
2022-09-13T00:24:13.133Z,99.90
2022-09-13T00:26:43.270Z,99.90
2022-09-13T00:29:13.526Z,99.90
2022-09-13T00:31:46.374Z,99.90
2022-09-13T00:34:16.777Z,99.90
2022-09-13T00:36:47.353Z,99.90
2022-09-13T00:39:17.526Z,99.90
2022-09-13T00:41:47.621Z,99.90
2022-09-13T00:44:47.926Z,99.90
2022-09-13T00:47:24.263Z,99.90
2022-09-13T00:50:00.551Z,99.90
2022-09-13T00:52:32.095Z,99.90
2022-09-13T00:55:05.921Z,99.90
2022-09-13T00:57:38.298Z,99.90
2022-09-13T01:00:14.058Z,99.90
2022-09-13T01:02:51.192Z,99.90
2022-09-13T01:05:26.637Z,99.90
2022-09-13T01:07:59.929Z,99.90
2022-09-13T01:10:31.912Z,99.90
2022-09-13T01:13:13.265Z,99.90
2022-09-13T01:15:44.053Z,99.90
2022-09-13T01:18:17.297Z,99.90
2022-09-13T01:21:09.311Z,99.90
2022-09-13T01:24:12.181Z,99.90
2022-09-13T01:27:19.510Z,99.90
2022-09-13T01:30:15.043Z,99.90
2022-09-13T01:33:15.850Z,99.90
2022-09-13T01:35:57.562Z,99.90
2022-09-13T01:38:44.070Z,99.90
2022-09-13T01:41:30.595Z,99.90
2022-09-13T01:44:10.431Z,99.90
2022-09-13T01:46:51.698Z,99.90
2022-09-13T01:49:30.596Z,99.90
2022-09-13T01:52:05.568Z,99.90
2022-09-13T01:54:44.660Z,99.90
2022-09-13T01:57:19.637Z,99.90
2022-09-13T01:59:54.351Z,99.90
2022-09-13T02:02:31.887Z,99.90
2022-09-13T02:05:07.774Z,99.90
2022-09-13T02:07:43.736Z,99.90
2022-09-13T02:10:19.064Z,99.90
2022-09-13T02:12:53.844Z,99.90
2022-09-13T02:15:27.100Z,99.90
2022-09-13T02:18:05.978Z,99.90
2022-09-13T02:20:39.535Z,99.90
2022-09-13T02:23:13.317Z,99.90
2022-09-13T02:25:44.903Z,99.90
2022-09-13T02:28:20.176Z,99.90
2022-09-13T02:30:54.596Z,99.90
2022-09-13T02:33:32.196Z,99.90
2022-09-13T02:36:05.683Z,99.90
2022-09-13T02:38:40.745Z,99.90
2022-09-13T02:41:18.117Z,99.90
2022-09-13T02:43:52.102Z,99.90
2022-09-13T02:46:31.302Z,99.90
2022-09-13T02:49:13.310Z,99.90
2022-09-13T02:51:53.716Z,99.90
2022-09-13T02:54:31.392Z,99.90
2022-09-13T02:57:08.031Z,99.90
2022-09-13T02:59:38.155Z,99.90
2022-09-13T03:02:11.691Z,99.90
2022-09-13T03:04:44.335Z,99.90
2022-09-13T03:07:15.615Z,99.90
2022-09-13T03:09:52.303Z,99.90
2022-09-13T03:12:42.385Z,99.90
2022-09-13T03:15:23.921Z,99.90
2022-09-13T03:18:01.801Z,99.90
2022-09-13T03:20:43.897Z,99.90
2022-09-13T03:23:35.971Z,99.90
2022-09-13T03:26:25.702Z,99.90
2022-09-13T03:29:04.240Z,99.90
2022-09-13T03:31:38.574Z,99.90
2022-09-13T03:34:14.776Z,99.90
2022-09-13T03:36:55.927Z,99.90
2022-09-13T03:39:37.570Z,99.90
2022-09-13T03:42:15.678Z,99.90
2022-09-13T03:44:49.074Z,99.90
2022-09-13T03:47:21.515Z,99.90
2022-09-13T03:49:53.461Z,99.90
2022-09-13T03:52:26.967Z,99.90
2022-09-13T03:54:57.264Z,99.90
2022-09-13T03:57:27.452Z,99.90
2022-09-13T03:59:59.692Z,99.90
2022-09-13T04:02:30.223Z,99.90
2022-09-13T04:05:00.012Z,99.90
2022-09-13T04:07:32.646Z,99.90
2022-09-13T04:10:02.827Z,99.90
2022-09-13T04:12:32.908Z,99.90
2022-09-13T04:15:02.967Z,99.90
2022-09-13T04:17:33.014Z,99.90
2022-09-13T04:20:03.196Z,99.90
2022-09-13T04:22:36.352Z,99.90
2022-09-13T04:25:06.804Z,99.90
2022-09-13T04:27:37.058Z,99.90
2022-09-13T04:30:08.143Z,99.90
2022-09-13T04:32:38.388Z,99.90
2022-09-13T04:35:10.231Z,99.90
2022-09-13T04:37:44.146Z,99.90
2022-09-13T04:40:15.188Z,99.90
2022-09-13T04:42:47.360Z,99.90
2022-09-13T04:45:17.686Z,99.90
2022-09-13T04:47:47.875Z,99.90
2022-09-13T04:50:18.307Z,99.90
2022-09-13T04:52:51.121Z,99.90
2022-09-13T04:55:21.282Z,99.90
2022-09-13T04:57:56.171Z,99.90
2022-09-13T05:00:27.417Z,99.90
2022-09-13T05:03:00.524Z,99.90
2022-09-13T05:05:32.686Z,99.90
2022-09-13T05:08:05.727Z,99.90
2022-09-13T05:10:35.805Z,99.90
2022-09-13T05:13:05.915Z,99.90
2022-09-13T05:15:35.958Z,99.90
2022-09-13T05:18:05.989Z,99.90
2022-09-13T05:20:36.033Z,99.90
2022-09-13T05:23:08.742Z,99.90
2022-09-13T05:25:38.780Z,99.90
2022-09-13T05:28:08.841Z,99.90
2022-09-13T05:30:42.234Z,99.90
2022-09-13T05:33:12.472Z,99.90
2022-09-13T05:35:44.185Z,99.90
2022-09-13T05:38:16.753Z,99.90
2022-09-13T05:40:46.943Z,99.90
2022-09-13T05:43:17.207Z,99.90
2022-09-13T05:45:47.359Z,99.90
2022-09-13T05:48:17.565Z,99.90
2022-09-13T05:50:58.233Z,99.90
2022-09-13T05:53:31.678Z,99.90
2022-09-13T05:56:01.992Z,99.90
2022-09-13T05:58:32.083Z,99.90
2022-09-13T06:01:02.283Z,99.90
2022-09-13T06:03:32.275Z,99.90
2022-09-13T06:06:02.736Z,99.90
2022-09-13T06:08:36.852Z,99.90
2022-09-13T06:11:08.938Z,99.90
2022-09-13T06:13:39.432Z,99.90
2022-09-13T06:16:11.511Z,99.90
2022-09-13T06:18:42.262Z,99.90
2022-09-13T06:21:17.861Z,99.90
2022-09-13T06:23:52.218Z,99.90
2022-09-13T06:26:23.932Z,99.90
2022-09-13T06:28:56.292Z,99.90
2022-09-13T06:31:28.511Z,99.90
2022-09-13T06:34:00.478Z,99.90
2022-09-13T06:36:32.572Z,99.90
2022-09-13T06:39:06.628Z,99.90
2022-09-13T06:41:37.586Z,99.90
2022-09-13T06:44:07.938Z,99.90
2022-09-13T06:46:38.843Z,99.90
2022-09-13T06:49:10.815Z,99.90
2022-09-13T06:51:42.115Z,99.90
2022-09-13T06:54:14.848Z,99.90
2022-09-13T06:56:44.955Z,99.90
2022-09-13T06:59:14.963Z,99.90
2022-09-13T07:01:47.162Z,99.90
2022-09-13T07:04:19.547Z,99.90
2022-09-13T07:06:51.526Z,99.90
2022-09-13T07:09:24.924Z,99.90
2022-09-13T07:11:57.001Z,99.90
2022-09-13T07:14:28.730Z,99.90
2022-09-13T07:17:00.562Z,99.90
2022-09-13T07:19:31.662Z,99.90
2022-09-13T07:22:02.239Z,99.90
2022-09-13T07:24:34.881Z,99.90
2022-09-13T07:27:05.036Z,99.90
2022-09-13T07:29:35.163Z,99.90
2022-09-13T07:32:05.558Z,99.90
2022-09-13T07:34:35.919Z,99.90
2022-09-13T07:37:06.154Z,99.90
2022-09-13T07:39:38.866Z,99.90
2022-09-13T07:42:09.275Z,99.90
2022-09-13T07:44:40.047Z,99.90
2022-09-13T07:47:10.242Z,99.90
2022-09-13T07:49:40.431Z,99.90
2022-09-13T07:52:11.177Z,99.90
2022-09-13T07:54:43.852Z,99.90
2022-09-13T07:57:14.370Z,99.90
2022-09-13T07:59:44.490Z,99.90
2022-09-13T08:02:14.911Z,99.90
2022-09-13T08:04:44.733Z,99.90
2022-09-13T08:07:14.939Z,99.90
2022-09-13T08:09:47.627Z,99.90
2022-09-13T08:12:17.766Z,99.90
2022-09-13T08:14:47.870Z,99.90
2022-09-13T08:17:18.032Z,99.90
2022-09-13T08:19:48.073Z,99.90
2022-09-13T08:22:18.345Z,99.90
2022-09-13T08:24:51.100Z,99.90
2022-09-13T08:27:21.277Z,99.90
2022-09-13T08:29:51.362Z,99.90
2022-09-13T08:32:21.515Z,99.90
2022-09-13T08:34:51.604Z,99.90
2022-09-13T08:37:21.763Z,99.90
2022-09-13T08:39:54.502Z,99.90
2022-09-13T08:42:34.162Z,99.90
2022-09-13T08:45:04.618Z,99.90
2022-09-13T08:47:43.272Z,99.90
2022-09-13T08:50:21.108Z,99.90
2022-09-13T08:53:09.864Z,99.90
2022-09-13T08:55:54.738Z,99.90
2022-09-13T08:58:53.761Z,99.90
2022-09-13T09:01:39.189Z,99.90
2022-09-13T09:04:18.938Z,99.90
2022-09-13T09:06:49.575Z,99.90
2022-09-13T09:09:23.783Z,98.90
2022-09-13T09:12:04.787Z,99.30
2022-09-13T09:14:38.655Z,99.70
2022-09-13T09:17:14.157Z,98.80
2022-09-13T09:19:48.101Z,98.30
2022-09-13T09:22:22.195Z,98.50
2022-09-13T09:24:55.267Z,98.60
2022-09-13T09:27:28.539Z,97.80
2022-09-13T09:30:01.000Z,96.80
2022-09-13T09:32:55.533Z,96.80
2022-09-13T09:35:40.155Z,97.50
2022-09-13T09:38:39.887Z,96.30
2022-09-13T09:41:16.538Z,95.40
2022-09-13T09:43:52.749Z,95.40
2022-09-13T09:46:31.856Z,94.20
2022-09-13T09:49:30.620Z,92.00
2022-09-13T09:52:06.780Z,90.30
2022-09-13T09:54:39.238Z,84.60
2022-09-13T09:57:11.714Z,79.70
2022-09-13T09:59:44.536Z,76.30
2022-09-13T10:02:20.649Z,70.80
2022-09-13T10:05:02.032Z,65.40
2022-09-13T10:07:36.065Z,62.90
2022-09-13T10:10:10.957Z,61.70
2022-09-13T10:12:43.298Z,61.10
2022-09-13T10:15:22.554Z,59.90
2022-09-13T10:18:26.450Z,58.60
2022-09-13T10:21:08.164Z,57.10
2022-09-13T10:23:40.305Z,55.30
2022-09-13T10:26:14.411Z,56.70
2022-09-13T10:28:50.030Z,55.50
2022-09-13T10:31:24.458Z,53.70
2022-09-13T10:34:02.811Z,52.60
2022-09-13T10:36:53.517Z,50.80
2022-09-13T10:39:26.126Z,49.90
2022-09-13T10:42:00.134Z,49.30
2022-09-13T10:44:35.644Z,48.00
2022-09-13T10:47:14.004Z,49.00
2022-09-13T10:49:50.765Z,50.70
2022-09-13T10:52:36.346Z,51.10
2022-09-13T10:55:28.550Z,52.40
2022-09-13T10:58:15.581Z,54.80
2022-09-13T11:01:05.267Z,55.20
2022-09-13T11:04:13.208Z,55.60
2022-09-13T11:06:50.011Z,58.30
2022-09-13T11:09:24.289Z,58.30
2022-09-13T11:12:05.521Z,57.40
2022-09-13T11:14:48.996Z,57.00
2022-09-13T11:17:29.932Z,56.50
2022-09-13T11:20:18.275Z,55.70
2022-09-13T11:23:09.231Z,56.90
2022-09-13T11:25:54.412Z,58.80
2022-09-13T11:28:31.765Z,60.30
2022-09-13T11:31:24.641Z,61.70
2022-09-13T11:34:09.630Z,62.30
2022-09-13T11:37:01.432Z,63.30
2022-09-13T11:39:40.290Z,64.20
2022-09-13T11:42:27.450Z,64.70
2022-09-13T11:45:22.612Z,64.00
2022-09-13T11:48:19.821Z,65.50
2022-09-13T11:51:00.999Z,67.20
2022-09-13T11:53:58.932Z,69.10
2022-09-13T11:56:34.750Z,71.40
2022-09-13T11:59:16.025Z,75.00
2022-09-13T12:01:52.404Z,72.40
2022-09-13T12:04:33.079Z,73.10
2022-09-13T12:07:07.719Z,71.80
2022-09-13T12:09:46.264Z,72.20
2022-09-13T12:12:17.693Z,70.20
2022-09-13T12:14:53.601Z,70.00
2022-09-13T12:17:30.905Z,69.50
2022-09-13T12:20:03.839Z,70.00
2022-09-13T12:22:37.963Z,69.10
2022-09-13T12:25:25.222Z,69.80
2022-09-13T12:28:01.581Z,69.90
2022-09-13T12:30:42.819Z,70.60
2022-09-13T12:33:16.513Z,70.50
2022-09-13T12:36:07.447Z,71.30
2022-09-13T12:39:04.981Z,69.20
2022-09-13T12:41:55.891Z,69.70
2022-09-13T12:44:44.337Z,70.40
2022-09-13T12:47:38.758Z,70.90
2022-09-13T12:50:44.264Z,70.10
2022-09-13T12:53:31.828Z,71.00
2022-09-13T12:56:15.756Z,71.50
2022-09-13T12:59:11.574Z,72.00
2022-09-13T13:01:48.171Z,72.00
2022-09-13T13:04:21.796Z,72.00
2022-09-13T13:06:55.679Z,72.40
2022-09-13T13:09:31.649Z,74.90
2022-09-13T13:12:01.982Z,75.50
2022-09-13T13:14:55.453Z,77.70
2022-09-13T13:17:41.578Z,77.80
2022-09-13T13:20:41.914Z,78.30
2022-09-13T13:23:31.669Z,79.30
2022-09-13T13:26:10.654Z,78.20
2022-09-13T13:29:15.815Z,78.40
2022-09-13T13:32:15.680Z,80.00
2022-09-13T13:34:49.155Z,81.00
2022-09-13T13:37:33.977Z,81.80
2022-09-13T13:40:29.782Z,81.00
2022-09-13T13:43:19.074Z,80.10
2022-09-13T13:46:15.306Z,81.70
2022-09-13T13:51:38.293Z,87.00
2022-09-13T13:54:36.649Z,90.10
2022-09-13T13:57:24.976Z,92.30
2022-09-13T13:59:58.870Z,93.70
2022-09-13T14:02:38.272Z,99.70
2022-09-13T14:05:20.033Z,99.90
2022-09-13T14:08:17.014Z,99.90
2022-09-13T14:10:52.498Z,99.90
2022-09-13T14:13:39.341Z,99.90
2022-09-13T14:16:18.083Z,99.90
2022-09-13T14:18:58.496Z,99.90
2022-09-13T14:21:32.665Z,99.90
2022-09-13T14:24:19.535Z,99.90
2022-09-13T14:26:51.805Z,99.90
2022-09-13T14:29:25.601Z,99.90
2022-09-13T14:31:58.543Z,99.90
2022-09-13T14:34:32.243Z,99.90
2022-09-13T14:37:07.302Z,99.90
2022-09-13T14:39:37.577Z,99.90
2022-09-13T14:42:15.827Z,99.90
2022-09-13T14:44:47.755Z,99.90
2022-09-13T14:47:22.871Z,99.90
2022-09-13T14:49:57.230Z,99.90
2022-09-13T14:52:34.832Z,99.90
2022-09-13T14:55:10.001Z,99.90
2022-09-13T14:57:42.057Z,99.90
2022-09-13T15:00:21.119Z,99.90
2022-09-13T15:02:54.103Z,99.90
2022-09-13T15:05:28.363Z,99.90
2022-09-13T15:08:01.318Z,99.90
2022-09-13T15:10:35.281Z,99.90
2022-09-13T15:13:12.944Z,99.90
2022-09-13T15:15:45.330Z,99.90
2022-09-13T15:18:28.323Z,99.90
2022-09-13T15:21:02.070Z,99.90
2022-09-13T15:23:36.880Z,99.90
2022-09-13T15:26:10.279Z,99.90
2022-09-13T15:28:56.926Z,99.90
2022-09-13T15:31:28.370Z,99.90
2022-09-13T15:34:23.646Z,99.90
2022-09-13T15:37:10.675Z,99.90
2022-09-13T15:39:53.956Z,99.90
2022-09-13T15:42:24.141Z,99.90
2022-09-13T15:44:54.500Z,99.90
2022-09-13T15:47:24.766Z,99.90
2022-09-13T15:49:55.407Z,99.90
2022-09-13T15:52:26.264Z,99.90
2022-09-13T15:54:59.010Z,99.90
2022-09-13T15:57:31.278Z,99.90
2022-09-13T16:00:06.403Z,99.90
2022-09-13T16:02:37.779Z,99.90
2022-09-13T16:05:08.923Z,99.90
2022-09-13T16:07:39.013Z,99.90
2022-09-13T16:10:15.782Z,99.90
2022-09-13T16:12:45.696Z,99.90
2022-09-13T16:15:15.701Z,99.90
2022-09-13T16:17:46.022Z,99.90
2022-09-13T16:20:17.183Z,99.90
2022-09-13T16:22:47.368Z,99.90
2022-09-13T16:25:19.905Z,99.90
2022-09-13T16:27:50.116Z,99.90
2022-09-13T16:30:22.408Z,99.90
2022-09-13T16:32:52.774Z,99.90
2022-09-13T16:35:22.961Z,99.90
2022-09-13T16:37:52.849Z,99.90
2022-09-13T16:40:26.595Z,99.90
2022-09-13T16:42:57.154Z,99.90
2022-09-13T16:45:27.460Z,99.90
2022-09-13T16:47:57.324Z,99.90
2022-09-13T16:50:27.205Z,99.90
2022-09-13T16:52:57.346Z,99.90
2022-09-13T16:55:30.357Z,99.90
2022-09-13T16:58:00.703Z,99.90
2022-09-13T17:00:30.649Z,99.90
2022-09-13T17:03:00.651Z,99.90
2022-09-13T17:05:30.942Z,99.90
2022-09-13T17:08:01.156Z,99.90
2022-09-13T17:10:33.878Z,99.90
2022-09-13T17:13:04.983Z,99.90
2022-09-13T17:15:35.283Z,99.90
2022-09-13T17:18:05.524Z,99.90
2022-09-13T17:20:35.799Z,99.90
2022-09-13T17:23:06.090Z,99.90
2022-09-13T17:25:38.563Z,99.90
2022-09-13T17:28:08.801Z,99.90
2022-09-13T17:30:39.098Z,99.90
2022-09-13T17:33:09.335Z,99.90
2022-09-13T17:35:39.627Z,99.90
2022-09-13T17:38:09.520Z,99.90
2022-09-13T17:40:42.558Z,99.90
2022-09-13T17:43:12.776Z,99.90
2022-09-13T17:45:42.964Z,99.90
2022-09-13T17:48:13.106Z,99.90
2022-09-13T17:50:43.306Z,99.90
2022-09-13T17:53:13.470Z,99.90
2022-09-13T17:55:52.809Z,99.90
2022-09-13T17:58:22.995Z,99.90
2022-09-13T18:00:53.229Z,99.90
2022-09-13T18:03:23.423Z,99.90
2022-09-13T18:05:58.870Z,99.90
2022-09-13T18:08:29.490Z,99.90
2022-09-13T18:11:13.284Z,99.90
2022-09-13T18:13:44.909Z,99.90
2022-09-13T18:16:21.247Z,99.90
2022-09-13T18:18:52.898Z,99.90
2022-09-13T18:21:24.765Z,99.90
2022-09-13T18:23:58.348Z,99.90
2022-09-13T18:26:33.038Z,99.90
2022-09-13T18:29:05.426Z,99.90
2022-09-13T18:31:37.506Z,99.90
2022-09-13T18:34:09.852Z,99.90
2022-09-13T18:36:40.903Z,99.90
2022-09-13T18:39:16.823Z,99.90
2022-09-13T18:41:50.281Z,99.90
2022-09-13T18:44:21.241Z,99.90
2022-09-13T18:46:53.111Z,99.90
2022-09-13T18:49:23.334Z,99.90
2022-09-13T18:51:53.686Z,99.90
2022-09-13T18:54:23.898Z,99.90
2022-09-13T18:56:58.102Z,99.90
2022-09-13T18:59:30.466Z,99.90
2022-09-13T19:02:00.908Z,99.90
2022-09-13T19:04:32.232Z,99.90
2022-09-13T19:07:04.800Z,99.90
2022-09-13T19:09:36.016Z,99.90
2022-09-13T19:12:10.414Z,99.90
2022-09-13T19:14:40.728Z,99.90
2022-09-13T19:17:10.926Z,99.90
2022-09-13T19:19:41.103Z,99.90
2022-09-13T19:22:11.602Z,99.90
2022-09-13T19:24:41.806Z,99.90
2022-09-13T19:27:14.697Z,99.90
2022-09-13T19:29:44.836Z,99.90
2022-09-13T19:32:15.449Z,99.90
2022-09-13T19:34:45.649Z,99.90
2022-09-13T19:37:15.791Z,99.90
2022-09-13T19:39:46.958Z,99.90
2022-09-13T19:42:19.843Z,99.90
2022-09-13T19:44:50.144Z,99.90
2022-09-13T19:50:12.815Z,99.90
2022-09-13T19:52:43.392Z,99.90
2022-09-13T19:55:13.208Z,99.90
2022-09-13T19:57:45.962Z,99.90
2022-09-13T20:00:16.992Z,99.90
2022-09-13T20:02:47.157Z,99.90
2022-09-13T20:05:18.031Z,99.90
2022-09-13T20:07:48.157Z,99.90
2022-09-13T20:10:18.536Z,99.90
2022-09-13T20:12:54.490Z,99.90
2022-09-13T20:15:25.422Z,99.90
2022-09-13T20:17:55.714Z,99.90
2022-09-13T20:20:26.069Z,99.90
2022-09-13T20:22:56.382Z,99.90
2022-09-13T20:25:26.776Z,99.90
2022-09-13T20:27:59.636Z,99.90
2022-09-13T20:30:29.988Z,99.90
2022-09-13T20:33:00.189Z,99.90
2022-09-13T20:35:32.323Z,99.90
2022-09-13T20:38:02.478Z,99.90
2022-09-13T20:40:32.779Z,99.90
2022-09-13T20:43:05.697Z,99.90
2022-09-13T20:45:35.923Z,99.90
2022-09-13T20:48:06.480Z,99.90
2022-09-13T20:50:38.880Z,99.90
2022-09-13T20:53:09.084Z,99.90
2022-09-13T20:55:40.692Z,99.90
2022-09-13T20:58:14.414Z,99.90
2022-09-13T21:00:44.752Z,99.90
2022-09-13T21:03:15.625Z,99.90
2022-09-13T21:05:46.191Z,99.90
2022-09-13T21:08:29.895Z,99.90
2022-09-13T21:11:03.686Z,99.90
2022-09-13T21:13:37.611Z,99.90
2022-09-13T21:16:08.404Z,99.90
2022-09-13T21:18:38.862Z,99.90
2022-09-13T21:21:10.563Z,99.90
2022-09-13T21:23:41.050Z,99.90
2022-09-13T21:26:13.401Z,99.90
2022-09-13T21:28:47.309Z,99.90
2022-09-13T21:31:21.646Z,99.90
2022-09-13T21:33:55.966Z,99.90
2022-09-13T21:36:26.697Z,99.90
2022-09-13T21:38:57.710Z,99.90
2022-09-13T21:41:29.606Z,99.90
2022-09-13T21:44:02.395Z,99.90
2022-09-13T21:46:34.184Z,99.90
2022-09-13T21:49:06.343Z,99.90
2022-09-13T21:51:38.200Z,99.90
2022-09-13T21:54:10.960Z,99.90
2022-09-13T21:56:42.968Z,99.90
2022-09-13T21:59:18.653Z,99.90
2022-09-13T22:01:50.587Z,99.90
2022-09-13T22:04:23.127Z,99.90
2022-09-13T22:06:56.463Z,99.90
2022-09-13T22:09:28.255Z,99.90
2022-09-13T22:11:59.248Z,99.90
2022-09-13T22:14:31.945Z,99.90
2022-09-13T22:17:02.686Z,99.90
2022-09-13T22:19:33.155Z,99.90
2022-09-13T22:22:03.603Z,99.90
2022-09-13T22:24:36.609Z,99.90
2022-09-13T22:27:07.380Z,99.90
2022-09-13T22:29:40.588Z,99.90
2022-09-13T22:32:11.039Z,99.90
2022-09-13T22:34:41.236Z,99.90
2022-09-13T22:37:11.422Z,99.90
2022-09-13T22:39:41.615Z,99.90
2022-09-13T22:42:11.967Z,99.90
2022-09-13T22:44:44.676Z,99.90
2022-09-13T22:47:15.198Z,99.90
2022-09-13T22:49:45.527Z,99.90
2022-09-13T22:52:16.030Z,99.90
2022-09-13T22:54:46.906Z,99.90
2022-09-13T22:57:17.111Z,99.90
2022-09-13T22:59:49.770Z,99.90
2022-09-13T23:02:19.963Z,99.90
2022-09-13T23:04:50.095Z,99.90
2022-09-13T23:07:20.519Z,99.90
2022-09-13T23:09:50.677Z,99.90
2022-09-13T23:12:20.795Z,99.90
2022-09-13T23:14:53.577Z,99.90
2022-09-13T23:17:23.658Z,99.90
2022-09-13T23:19:53.745Z,99.90
2022-09-13T23:22:23.923Z,99.90
2022-09-13T23:24:53.973Z,99.90
2022-09-13T23:27:24.804Z,99.90
2022-09-13T23:29:57.538Z,99.90
2022-09-13T23:32:27.745Z,99.90
2022-09-13T23:34:59.455Z,99.90
2022-09-13T23:37:29.608Z,99.90
2022-09-13T23:39:59.760Z,99.90
2022-09-13T23:42:31.222Z,99.90
2022-09-13T23:45:04.141Z,99.90
2022-09-13T23:47:34.326Z,99.90
2022-09-13T23:50:04.557Z,99.90
2022-09-13T23:52:34.862Z,99.90
2022-09-13T23:55:05.127Z,99.90
2022-09-13T23:57:35.636Z,99.90
